Time;durP1;ratioP1;P1;durP2;ratioP2;P2;SDS_P1;SDS_P2;PMS_P1;PMS_P2;Temp;Humidity;BMP_temperature;BMP_pressure;BME280_temperature;BME280_humidity;BME280_pressure;Samples;Min_cycle;Max_cycle;Signal;HPM_P1;HPM_P2
2023/09/10 00:02:18;;;;;;;27.83;9.43;;;30.70;57.50;;;;;;5040404;28;20287;-73
2023/09/10 00:04:46;;;;;;;27.65;9.05;;;30.70;57.50;;;;;;5046748;28;20215;-72
2023/09/10 00:07:13;;;;;;;26.63;9.50;;;30.70;57.50;;;;;;5035809;28;20207;-72
2023/09/10 00:09:40;;;;;;;29.05;9.85;;;30.70;58.10;;;;;;5039160;28;20196;-72
2023/09/10 00:12:07;;;;;;;29.43;9.77;;;30.60;57.50;;;;;;5049388;28;20197;-75
2023/09/10 00:14:34;;;;;;;41.47;10.77;;;30.60;57.50;;;;;;5046807;28;20205;-72
2023/09/10 00:17:02;;;;;;;33.73;9.70;;;30.70;57.60;;;;;;5029641;28;20200;-73
2023/09/10 00:19:29;;;;;;;29.10;9.10;;;30.60;57.50;;;;;;5029477;28;20193;-72
2023/09/10 00:21:57;;;;;;;30.87;10.27;;;30.60;57.60;;;;;;5029454;28;20225;-72
2023/09/10 00:24:24;;;;;;;34.53;10.17;;;30.60;57.60;;;;;;5029310;28;20638;-73
2023/09/10 00:26:51;;;;;;;28.48;9.43;;;30.60;57.60;;;;;;5029435;28;20205;-72
2023/09/10 00:29:18;;;;;;;35.80;10.63;;;30.60;57.60;;;;;;5035047;28;20202;-73
2023/09/10 00:31:45;;;;;;;38.60;10.87;;;30.60;57.60;;;;;;5048690;28;20402;-73
2023/09/10 00:34:12;;;;;;;25.33;9.20;;;30.50;57.50;;;;;;5049423;28;20200;-75
2023/09/10 00:36:39;;;;;;;31.83;9.77;;;30.60;57.60;;;;;;5048032;28;20235;-73
2023/09/10 00:39:08;;;;;;;28.20;9.27;;;30.50;57.60;;;;;;5048078;28;20204;-72
2023/09/10 00:41:35;;;;;;;27.30;9.17;;;30.50;57.60;;;;;;5049501;28;20224;-72
2023/09/10 00:44:02;;;;;;;42.20;10.47;;;30.50;57.60;;;;;;5032854;28;20213;-73
2023/09/10 00:46:30;;;;;;;23.60;9.50;;;30.50;57.60;;;;;;5041118;28;20942;-72
2023/09/10 00:48:59;;;;;;;31.97;9.97;;;30.50;57.60;;;;;;5048890;28;20204;-73
2023/09/10 00:51:26;;;;;;;28.40;9.67;;;30.50;57.60;;;;;;5038115;28;20207;-72
2023/09/10 00:53:55;;;;;;;32.40;9.93;;;30.50;57.60;;;;;;5029571;28;20610;-72
2023/09/10 00:56:24;;;;;;;28.77;9.87;;;30.50;57.60;;;;;;5029306;28;20185;-73
2023/09/10 00:58:53;;;;;;;34.83;10.00;;;30.50;57.70;;;;;;5028469;28;20204;-73
2023/09/10 01:01:20;;;;;;;23.93;9.07;;;30.50;57.70;;;;;;5028729;28;20770;-72
2023/09/10 01:03:47;;;;;;;44.80;11.40;;;30.50;57.70;;;;;;5044403;28;20668;-73
2023/09/10 01:06:14;;;;;;;32.20;9.73;;;30.50;57.70;;;;;;5047627;28;20200;-75
2023/09/10 01:08:41;;;;;;;31.37;9.20;;;30.40;57.70;;;;;;5048760;28;20214;-73
2023/09/10 01:11:18;;;;;;;29.60;9.27;;;30.50;57.70;;;;;;5047186;28;20576;-72
2023/09/10 01:13:53;;;;;;;25.80;9.67;;;30.40;57.70;;;;;;5034906;28;20230;-73
2023/09/10 01:16:30;;;;;;;30.37;9.50;;;30.50;57.80;;;;;;5028438;28;20243;-72
2023/09/10 01:19:04;;;;;;;29.77;9.77;;;30.40;57.70;;;;;;5028148;28;20284;-72
2023/09/10 01:21:49;;;;;;;38.00;10.30;;;30.40;57.70;;;;;;5042485;28;20307;-72
2023/09/10 01:24:24;;;;;;;22.83;8.93;;;30.40;57.70;;;;;;5048345;28;20300;-72
2023/09/10 01:26:59;;;;;;;34.23;10.33;;;30.40;57.70;;;;;;5048187;28;20270;-73
2023/09/10 01:29:26;;;;;;;24.73;9.17;;;30.40;57.80;;;;;;5047116;28;20317;-72
2023/09/10 01:31:58;;;;;;;43.50;10.83;;;30.30;57.70;;;;;;5047234;28;20218;-73
2023/09/10 01:34:31;;;;;;;32.53;10.67;;;30.30;57.70;;;;;;5043592;28;20254;-73
2023/09/10 01:37:04;;;;;;;38.17;11.20;;;30.30;57.70;;;;;;5047737;28;20291;-73
2023/09/10 01:39:37;;;;;;;27.67;9.10;;;30.30;57.70;;;;;;5046618;28;20800;-74
2023/09/10 01:42:06;;;;;;;34.03;9.83;;;30.30;57.70;;;;;;5035742;28;20254;-75
2023/09/10 01:44:35;;;;;;;30.30;9.17;;;30.30;57.80;;;;;;5026806;28;20296;-75
2023/09/10 01:47:03;;;;;;;34.90;9.90;;;30.30;57.80;;;;;;5047179;28;20605;-74
2023/09/10 01:49:31;;;;;;;27.50;9.10;;;30.30;57.80;;;;;;5040940;28;20240;-75
2023/09/10 01:51:58;;;;;;;31.40;9.90;;;30.30;57.80;;;;;;5028150;28;20192;-76
2023/09/10 01:54:25;;;;;;;30.27;10.80;;;30.30;57.80;;;;;;5035915;28;20193;-76
2023/09/10 01:56:52;;;;;;;36.20;9.63;;;30.30;57.80;;;;;;5047562;28;20207;-76
2023/09/10 01:59:20;;;;;;;28.43;8.87;;;30.20;57.70;;;;;;5047526;28;20199;-75
2023/09/10 02:01:47;;;;;;;38.57;10.30;;;30.30;57.80;;;;;;5047606;28;20238;-75
2023/09/10 02:04:14;;;;;;;29.53;9.37;;;30.20;57.80;;;;;;5047724;28;20210;-75
2023/09/10 02:06:41;;;;;;;24.07;8.63;;;30.20;57.80;;;;;;5044947;28;20200;-76
2023/09/10 02:09:08;;;;;;;29.30;9.77;;;30.20;57.80;;;;;;5046195;28;20234;-75
2023/09/10 02:11:35;;;;;;;32.17;10.27;;;30.20;57.80;;;;;;5038502;28;20204;-75
2023/09/10 02:14:02;;;;;;;36.97;10.30;;;30.20;57.80;;;;;;5027927;28;20672;-75
2023/09/10 02:16:31;;;;;;;32.60;9.80;;;30.20;57.80;;;;;;5027966;28;20201;-75
2023/09/10 02:18:57;;;;;;;27.60;9.40;;;30.20;57.80;;;;;;5027966;28;20274;-75
2023/09/10 02:21:24;;;;;;;24.23;8.73;;;30.20;57.80;;;;;;5027687;28;20233;-75
2023/09/10 02:23:51;;;;;;;47.80;10.90;;;30.20;57.80;;;;;;5035621;28;20196;-75
2023/09/10 02:26:18;;;;;;;34.50;9.37;;;30.20;57.90;;;;;;5027424;28;20284;-75
2023/09/10 02:28:45;;;;;;;42.88;11.02;;;30.10;57.80;;;;;;5040880;28;20196;-75
2023/09/10 02:31:12;;;;;;;33.13;9.18;;;30.10;57.80;;;;;;5038986;28;20228;-75
2023/09/10 02:33:41;;;;;;;30.40;8.90;;;30.10;57.80;;;;;;5036134;28;20196;-76
2023/09/10 02:36:08;;;;;;;34.00;9.53;;;30.10;57.80;;;;;;5046706;28;20291;-76
2023/09/10 02:38:35;;;;;;;33.88;9.70;;;30.10;57.80;;;;;;5034265;28;20695;-75
2023/09/10 02:41:01;;;;;;;50.47;10.27;;;30.10;57.80;;;;;;5041660;28;20583;-76
2023/09/10 02:43:28;;;;;;;31.47;9.67;;;30.10;57.80;;;;;;5027358;28;20255;-76
2023/09/10 02:45:55;;;;;;;37.03;9.57;;;30.10;57.90;;;;;;5027418;28;20276;-76
2023/09/10 02:48:22;;;;;;;32.50;8.87;;;30.10;57.90;;;;;;5027356;28;20226;-76
2023/09/10 02:50:50;;;;;;;30.33;9.03;;;30.00;57.80;;;;;;5043361;28;20578;-75
2023/09/10 02:53:17;;;;;;;30.90;8.97;;;30.10;57.90;;;;;;5046582;28;20211;-76
2023/09/10 02:55:44;;;;;;;42.17;10.13;;;30.00;57.80;;;;;;5047115;28;20205;-75
2023/09/10 02:58:11;;;;;;;28.50;8.60;;;30.00;57.80;;;;;;5046501;28;20208;-75
2023/09/10 03:00:38;;;;;;;43.23;10.00;;;30.00;57.80;;;;;;5031712;28;20240;-76
2023/09/10 03:03:05;;;;;;;24.57;7.87;;;30.00;57.80;;;;;;5038522;28;20571;-76
2023/09/10 03:05:34;;;;;;;33.13;9.33;;;30.00;57.90;;;;;;5030952;28;20189;-76
2023/09/10 03:08:02;;;;;;;30.77;8.70;;;30.00;57.80;;;;;;5030721;28;20197;-76
2023/09/10 03:10:29;;;;;;;30.97;8.87;;;30.00;57.90;;;;;;5042477;28;20205;-76
2023/09/10 03:12:56;;;;;;;25.20;8.23;;;30.00;57.90;;;;;;5035530;28;20726;-76
2023/09/10 03:15:23;;;;;;;39.57;9.87;;;29.90;57.80;;;;;;5043007;28;20211;-76
2023/09/10 03:17:50;;;;;;;30.87;9.03;;;29.90;57.80;;;;;;5043857;28;20313;-76
2023/09/10 03:20:17;;;;;;;25.53;8.07;;;29.90;57.90;;;;;;5035302;28;20213;-76
2023/09/10 03:22:44;;;;;;;36.37;9.80;;;29.90;57.90;;;;;;5045419;28;20695;-76
2023/09/10 03:25:12;;;;;;;22.23;8.27;;;29.90;57.90;;;;;;5050615;28;20210;-76
2023/09/10 03:27:39;;;;;;;32.67;9.00;;;29.90;57.90;;;;;;5049576;28;20204;-76
2023/09/10 03:30:08;;;;;;;33.13;9.00;;;29.90;57.90;;;;;;5049405;28;20200;-76
2023/09/10 03:32:35;;;;;;;36.53;9.67;;;29.90;57.90;;;;;;5045303;28;20208;-76
2023/09/10 03:35:03;;;;;;;32.53;9.80;;;29.80;57.80;;;;;;5034448;28;20215;-76
2023/09/10 03:37:30;;;;;;;48.10;11.63;;;29.90;57.90;;;;;;5046939;28;20537;-76
2023/09/10 03:39:57;;;;;;;34.27;9.70;;;29.90;57.90;;;;;;5037063;28;20787;-76
2023/09/10 03:42:25;;;;;;;31.20;8.57;;;29.80;57.90;;;;;;5047690;28;20212;-76
2023/09/10 03:44:55;;;;;;;31.17;8.90;;;29.80;57.90;;;;;;5045313;28;20206;-76
2023/09/10 03:47:22;;;;;;;45.73;10.77;;;29.80;58.00;;;;;;5037870;28;20312;-76
2023/09/10 03:49:49;;;;;;;30.93;9.20;;;29.80;57.90;;;;;;5047604;28;20300;-76
2023/09/10 03:52:17;;;;;;;26.20;8.90;;;29.80;57.90;;;;;;5048989;28;20203;-76
2023/09/10 03:54:43;;;;;;;39.23;9.60;;;29.80;58.00;;;;;;5049211;28;20210;-76
2023/09/10 03:57:10;;;;;;;25.20;8.77;;;29.80;57.90;;;;;;5042460;28;20283;-76
2023/09/10 03:59:39;;;;;;;35.17;10.07;;;29.80;58.00;;;;;;5042262;28;20295;-76
2023/09/10 04:02:06;;;;;;;36.23;10.10;;;29.80;58.00;;;;;;5030395;28;20245;-76
2023/09/10 04:04:34;;;;;;;37.93;9.97;;;29.80;58.00;;;;;;5045279;28;20200;-76
2023/09/10 04:07:01;;;;;;;32.93;9.40;;;29.80;58.00;;;;;;5048798;28;20200;-75
2023/09/10 04:09:29;;;;;;;28.20;9.10;;;29.70;58.50;;;;;;5037285;28;20246;-76
2023/09/10 04:11:57;;;;;;;49.57;10.87;;;29.70;58.00;;;;;;5045424;28;20678;-76
2023/09/10 04:14:24;;;;;;;32.40;9.30;;;29.70;57.90;;;;;;5041588;28;20567;-76
2023/09/10 04:16:54;;;;;;;31.70;9.13;;;29.70;57.90;;;;;;5035780;28;20208;-76
2023/09/10 04:19:24;;;;;;;35.83;9.40;;;29.70;58.00;;;;;;5049129;28;20200;-76
2023/09/10 04:21:51;;;;;;;44.80;10.77;;;29.60;57.90;;;;;;5042229;28;20233;-76
2023/09/10 04:24:18;;;;;;;25.53;8.10;;;29.70;58.00;;;;;;5049518;28;20207;-76
2023/09/10 04:26:45;;;;;;;42.97;10.60;;;29.60;57.90;;;;;;5044871;28;20307;-76
2023/09/10 04:29:12;;;;;;;28.33;8.73;;;29.60;58.00;;;;;;5044252;28;20243;-76
2023/09/10 04:31:41;;;;;;;33.93;9.33;;;29.60;58.00;;;;;;5044751;28;20207;-76
2023/09/10 04:34:09;;;;;;;42.17;10.40;;;29.60;58.00;;;;;;5032569;28;20193;-77
2023/09/10 04:36:36;;;;;;;36.53;9.20;;;29.60;58.00;;;;;;5031344;28;20314;-77
2023/09/10 04:39:08;;;;;;;43.40;9.93;;;29.60;58.00;;;;;;5045572;28;20283;-76
2023/09/10 04:41:35;;;;;;;29.47;9.07;;;29.60;58.00;;;;;;5032080;28;20263;-76
2023/09/10 04:44:02;;;;;;;33.43;9.07;;;29.60;58.00;;;;;;5046693;28;20208;-76
2023/09/10 04:46:29;;;;;;;20.80;8.10;;;29.60;58.00;;;;;;5048098;28;20196;-75
2023/09/10 04:48:57;;;;;;;44.13;10.33;;;29.60;58.00;;;;;;5045242;28;20196;-76
2023/09/10 04:51:25;;;;;;;36.17;9.47;;;29.60;58.00;;;;;;5048153;28;20564;-76
2023/09/10 04:53:52;;;;;;;33.30;9.23;;;29.60;58.00;;;;;;5048063;28;20287;-75
2023/09/10 04:56:19;;;;;;;45.87;10.87;;;29.60;58.10;;;;;;5046617;28;20283;-75
2023/09/10 04:58:46;;;;;;;38.80;9.53;;;29.50;58.00;;;;;;5036271;28;20674;-75
2023/09/10 05:01:15;;;;;;;29.87;9.10;;;29.60;58.10;;;;;;5028449;28;20205;-76
2023/09/10 05:03:43;;;;;;;31.87;8.93;;;29.50;58.00;;;;;;5028430;28;20302;-75
2023/09/10 05:06:12;;;;;;;31.17;9.03;;;29.50;58.00;;;;;;5028573;28;20232;-75
2023/09/10 05:08:41;;;;;;;25.83;8.73;;;29.50;58.00;;;;;;5028633;28;20280;-75
2023/09/10 05:11:08;;;;;;;28.30;9.03;;;29.50;58.00;;;;;;5043055;28;20544;-75
2023/09/10 05:13:36;;;;;;;24.83;8.40;;;29.50;58.00;;;;;;5036709;28;20200;-74
2023/09/10 05:16:03;;;;;;;36.40;9.33;;;29.50;58.00;;;;;;5047556;28;20279;-75
2023/09/10 05:18:30;;;;;;;34.00;9.53;;;29.50;58.00;;;;;;5039316;28;20210;-75
2023/09/10 05:20:57;;;;;;;41.53;10.10;;;29.50;58.00;;;;;;5041419;28;20311;-75
2023/09/10 05:23:26;;;;;;;33.90;9.13;;;29.50;58.00;;;;;;5032968;28;20218;-75
2023/09/10 05:25:54;;;;;;;31.60;8.67;;;29.50;58.00;;;;;;5047196;28;20200;-75
2023/09/10 05:28:22;;;;;;;27.73;7.87;;;29.40;57.90;;;;;;5041397;28;20778;-75
2023/09/10 05:30:49;;;;;;;33.37;8.90;;;29.40;57.90;;;;;;5032948;28;20255;-76
2023/09/10 05:33:16;;;;;;;24.20;7.70;;;29.40;57.90;;;;;;5038542;28;20230;-74
2023/09/10 05:35:43;;;;;;;28.83;8.47;;;29.40;57.90;;;;;;5040363;28;20311;-75
2023/09/10 05:38:11;;;;;;;38.70;9.23;;;29.40;57.90;;;;;;5046656;28;20223;-75
2023/09/10 05:40:38;;;;;;;29.70;8.43;;;29.40;57.90;;;;;;5028392;28;20307;-75
2023/09/10 05:43:06;;;;;;;28.27;7.97;;;29.40;57.90;;;;;;5027870;28;20235;-75
2023/09/10 05:45:34;;;;;;;23.20;7.37;;;29.40;57.90;;;;;;5037097;28;20207;-76
2023/09/10 05:48:01;;;;;;;43.50;9.47;;;29.40;57.90;;;;;;5043439;28;20196;-75
2023/09/10 05:50:28;;;;;;;26.10;7.83;;;29.40;58.50;;;;;;5046974;28;20211;-76
2023/09/10 05:52:56;;;;;;;31.03;8.73;;;29.40;57.90;;;;;;5039560;28;20205;-75
2023/09/10 05:55:24;;;;;;;32.80;8.67;;;29.30;57.90;;;;;;5027624;28;21010;-75
2023/09/10 05:57:52;;;;;;;22.67;7.80;;;29.40;57.90;;;;;;5029336;28;20201;-75
2023/09/10 06:00:21;;;;;;;41.30;9.50;;;29.40;58.00;;;;;;5043350;28;20874;-75
2023/09/10 06:02:49;;;;;;;28.07;8.23;;;29.30;57.90;;;;;;5040214;28;20228;-75
2023/09/10 06:05:16;;;;;;;36.83;9.33;;;29.30;57.90;;;;;;5037792;28;20212;-74
2023/09/10 06:07:43;;;;;;;25.67;8.20;;;29.40;58.00;;;;;;5030802;28;20201;-75
2023/09/10 06:10:10;;;;;;;27.43;7.93;;;29.30;58.00;;;;;;5027471;28;20300;-75
2023/09/10 06:12:37;;;;;;;43.03;9.73;;;29.30;58.00;;;;;;5027531;28;20208;-75
2023/09/10 06:15:05;;;;;;;28.73;8.73;;;29.30;58.00;;;;;;5037493;28;20220;-75
2023/09/10 06:17:34;;;;;;;44.50;9.70;;;29.30;58.00;;;;;;5037838;28;20294;-75
2023/09/10 06:20:02;;;;;;;33.47;8.77;;;29.30;58.00;;;;;;5046126;28;20723;-75
2023/09/10 06:22:29;;;;;;;23.50;8.10;;;29.30;58.00;;;;;;5035825;28;20233;-75
2023/09/10 06:24:56;;;;;;;22.53;8.30;;;29.30;58.00;;;;;;5038733;28;20917;-75
2023/09/10 06:27:23;;;;;;;23.60;8.30;;;29.30;58.10;;;;;;5037099;28;20243;-74
2023/09/10 06:29:50;;;;;;;25.50;8.40;;;29.30;58.10;;;;;;5027319;28;20965;-75
2023/09/10 06:32:17;;;;;;;59.40;11.67;;;29.30;58.10;;;;;;5029658;28;20212;-75
2023/09/10 06:34:45;;;;;;;26.53;8.63;;;29.30;58.10;;;;;;5029842;28;20301;-75
2023/09/10 06:37:13;;;;;;;34.80;9.30;;;29.30;58.10;;;;;;5031315;28;20199;-75
2023/09/10 06:39:40;;;;;;;24.17;8.13;;;29.30;58.10;;;;;;5031518;28;20679;-76
2023/09/10 06:42:08;;;;;;;29.37;9.37;;;29.30;58.10;;;;;;5049126;28;20231;-75
2023/09/10 06:44:38;;;;;;;52.87;11.00;;;29.30;58.10;;;;;;5046051;28;20672;-75
2023/09/10 06:47:05;;;;;;;30.47;9.20;;;29.30;58.20;;;;;;5049995;28;20196;-76
2023/09/10 06:49:32;;;;;;;37.27;9.80;;;29.30;58.20;;;;;;5033864;28;20222;-76
2023/09/10 06:52:00;;;;;;;34.77;9.43;;;29.30;58.20;;;;;;5034678;28;20204;-75
2023/09/10 06:54:27;;;;;;;37.73;9.77;;;29.30;58.20;;;;;;5030588;28;20331;-75
2023/09/10 06:56:55;;;;;;;27.87;8.50;;;29.30;58.20;;;;;;5030341;28;20283;-76
2023/09/10 06:59:22;;;;;;;48.50;11.00;;;29.30;58.80;;;;;;5030403;28;20250;-75
2023/09/10 07:01:49;;;;;;;46.43;10.50;;;29.30;58.20;;;;;;5037867;28;20205;-75
2023/09/10 07:04:20;;;;;;;29.07;8.50;;;29.30;58.20;;;;;;5042097;28;20612;-75
2023/09/10 07:06:48;;;;;;;23.93;8.20;;;29.30;58.90;;;;;;5030984;28;20567;-76
2023/09/10 07:09:18;;;;;;;35.30;8.83;;;29.30;58.30;;;;;;5043627;28;20197;-75
2023/09/10 07:11:45;;;;;;;31.07;9.10;;;29.30;58.30;;;;;;5045715;28;20196;-75
2023/09/10 07:14:11;;;;;;;22.93;8.43;;;29.30;58.30;;;;;;5048385;28;20211;-76
2023/09/10 07:16:38;;;;;;;41.60;10.17;;;29.30;58.40;;;;;;5050660;28;20201;-76
2023/09/10 07:19:05;;;;;;;27.33;8.37;;;29.30;58.30;;;;;;5050731;28;20672;-77
2023/09/10 07:21:32;;;;;;;38.13;9.53;;;29.30;58.30;;;;;;5037085;28;20555;-75
2023/09/10 07:23:59;;;;;;;29.30;8.43;;;29.30;58.30;;;;;;5041069;28;20257;-75
2023/09/10 07:26:27;;;;;;;32.67;8.57;;;29.30;58.40;;;;;;5050163;28;20287;-76
2023/09/10 07:28:54;;;;;;;27.80;9.00;;;29.30;58.40;;;;;;5031844;28;20207;-76
2023/09/10 07:31:21;;;;;;;32.13;8.43;;;29.30;58.40;;;;;;5042976;28;20371;-77
2023/09/10 07:33:48;;;;;;;36.03;9.07;;;29.30;58.40;;;;;;5045469;28;20208;-75
2023/09/10 07:36:15;;;;;;;24.87;7.80;;;29.30;58.40;;;;;;5045275;28;20287;-75
2023/09/10 07:38:42;;;;;;;32.40;8.73;;;29.30;58.40;;;;;;5034218;28;20304;-77
2023/09/10 07:41:09;;;;;;;33.03;8.33;;;29.30;58.40;;;;;;5032980;28;20206;-76
2023/09/10 07:43:38;;;;;;;30.87;9.20;;;29.30;58.40;;;;;;5044496;28;20233;-76
2023/09/10 07:46:05;;;;;;;33.77;8.57;;;29.30;58.40;;;;;;5048324;28;20203;-75
2023/09/10 07:48:32;;;;;;;43.53;9.93;;;29.30;58.40;;;;;;5050331;28;20208;-76
2023/09/10 07:50:59;;;;;;;46.07;10.73;;;29.30;58.50;;;;;;5039774;28;20204;-76
2023/09/10 07:53:26;;;;;;;35.70;9.03;;;29.30;58.40;;;;;;5037551;28;20240;-77
2023/09/10 07:55:53;;;;;;;33.40;8.87;;;29.40;58.50;;;;;;5030184;28;20380;-78
2023/09/10 07:58:20;;;;;;;34.37;8.90;;;29.40;58.50;;;;;;5029527;28;20578;-75
2023/09/10 08:00:50;;;;;;;38.20;10.10;;;29.30;58.50;;;;;;5032119;28;20282;-78
2023/09/10 08:03:17;;;;;;;27.03;8.13;;;29.40;58.60;;;;;;5030128;28;20237;-75
2023/09/10 08:05:44;;;;;;;38.07;10.13;;;29.40;58.60;;;;;;5045534;28;20675;-74
2023/09/10 08:08:11;;;;;;;29.13;8.43;;;29.40;58.70;;;;;;5043555;28;20240;-74
2023/09/10 08:10:38;;;;;;;26.00;8.90;;;29.40;58.70;;;;;;5029876;28;20204;-73
2023/09/10 08:14:49;;;;;;;30.52;9.90;;;29.40;58.20;;;;;;5099893;27;20474;-75
2023/09/10 08:17:16;;;;;;;35.47;9.20;;;29.30;59.30;;;;;;5066432;28;20313;-77
2023/09/10 08:19:43;;;;;;;30.00;9.07;;;29.30;59.20;;;;;;5077063;28;20203;-73
2023/09/10 08:22:10;;;;;;;27.43;8.17;;;29.40;59.00;;;;;;5071867;28;20209;-74
2023/09/10 08:24:37;;;;;;;27.57;8.03;;;29.50;59.00;;;;;;5071763;28;20330;-72
2023/09/10 08:27:04;;;;;;;31.60;8.57;;;29.50;58.90;;;;;;5077131;28;20272;-72
2023/09/10 08:29:32;;;;;;;24.60;7.97;;;29.50;58.90;;;;;;5085245;28;20258;-75
2023/09/10 08:32:01;;;;;;;27.17;8.03;;;29.50;58.90;;;;;;5084242;28;20217;-78
2023/09/10 08:34:28;;;;;;;35.03;9.27;;;29.60;58.80;;;;;;5078072;28;20313;-75
2023/09/10 08:36:55;;;;;;;32.20;9.00;;;29.60;58.80;;;;;;5081400;28;20635;-75
2023/09/10 08:39:23;;;;;;;28.20;9.17;;;29.60;58.80;;;;;;5085353;28;20223;-75
2023/09/10 08:41:57;;;;;;;28.67;8.33;;;29.60;58.80;;;;;;5085034;28;20306;-74
2023/09/10 08:44:26;;;;;;;26.67;7.67;;;29.60;58.80;;;;;;5085025;28;20210;-73
2023/09/10 08:46:56;;;;;;;23.33;8.33;;;29.70;58.90;;;;;;5071310;28;20206;-75
2023/09/10 08:49:26;;;;;;;30.17;9.40;;;29.70;58.80;;;;;;5064473;28;20630;-76
2023/09/10 08:51:53;;;;;;;30.60;8.70;;;29.70;58.80;;;;;;5064312;28;20206;-78
2023/09/10 08:54:20;;;;;;;28.43;7.83;;;29.70;58.80;;;;;;5064090;28;20952;-72
2023/09/10 08:56:49;;;;;;;29.57;8.10;;;29.70;58.80;;;;;;5064302;28;20294;-74
2023/09/10 08:59:17;;;;;;;23.30;7.57;;;29.80;59.50;;;;;;5064298;28;20199;-74
2023/09/10 09:01:45;;;;;;;25.70;7.50;;;29.70;58.80;;;;;;5077478;28;20202;-77
2023/09/10 09:04:13;;;;;;;30.97;8.10;;;29.80;58.90;;;;;;5070778;28;20225;-76
2023/09/10 09:06:48;;;;;;;33.07;8.73;;;29.80;58.90;;;;;;5075280;28;20678;-79
2023/09/10 09:09:19;;;;;;;29.03;8.37;;;29.80;58.90;;;;;;5084493;28;20255;-77
2023/09/10 09:11:49;;;;;;;31.27;8.90;;;29.80;58.90;;;;;;5075190;28;20782;-77
2023/09/10 09:14:18;;;;;;;29.90;8.70;;;29.80;58.90;;;;;;5077494;28;20218;-76
2023/09/10 09:16:47;;;;;;;29.70;8.50;;;29.90;59.00;;;;;;5084008;28;20954;-79
2023/09/10 09:19:16;;;;;;;31.87;8.47;;;29.80;58.90;;;;;;5063975;28;20284;-76
2023/09/10 09:21:47;;;;;;;34.63;8.80;;;29.90;59.60;;;;;;5079091;28;20601;-76
2023/09/10 09:24:15;;;;;;;29.33;8.10;;;29.90;59.00;;;;;;5078393;28;20274;-77
2023/09/10 09:26:43;;;;;;;42.33;9.40;;;29.90;59.00;;;;;;5069419;28;20207;-77
2023/09/10 09:29:09;;;;;;;30.67;8.80;;;29.90;59.00;;;;;;5066975;28;20258;-76
2023/09/10 09:31:36;;;;;;;23.77;7.90;;;30.00;59.00;;;;;;5070998;28;20286;-76
2023/09/10 09:34:04;;;;;;;26.23;8.40;;;30.00;59.00;;;;;;5062077;28;20308;-78
2023/09/10 09:36:33;;;;;;;30.27;8.47;;;30.00;59.00;;;;;;5070682;28;20195;-78
2023/09/10 09:39:04;;;;;;;70.33;12.03;;;30.00;59.10;;;;;;5053841;28;20204;-81
2023/09/10 09:41:35;;;;;;;30.97;8.77;;;30.10;59.10;;;;;;5057737;28;20207;-75
2023/09/10 09:44:03;;;;;;;36.13;9.40;;;30.10;59.10;;;;;;5069494;28;20210;-77
2023/09/10 09:46:33;;;;;;;24.63;8.17;;;30.10;59.10;;;;;;5070232;28;21087;-77
2023/09/10 09:49:00;;;;;;;52.63;11.47;;;30.10;59.10;;;;;;5065801;28;20310;-75
2023/09/10 09:51:28;;;;;;;45.20;10.80;;;30.10;59.10;;;;;;5075566;28;20277;-78
2023/09/10 09:53:56;;;;;;;27.93;8.77;;;30.20;59.10;;;;;;5090063;28;20309;-77
2023/09/10 09:56:24;;;;;;;44.30;10.67;;;30.10;59.00;;;;;;5084396;28;20207;-75
2023/09/10 09:58:51;;;;;;;33.37;9.50;;;30.20;59.10;;;;;;5086683;28;20285;-75
2023/09/10 10:01:21;;;;;;;34.67;9.33;;;30.20;59.10;;;;;;5090113;28;20202;-76
2023/09/10 10:03:49;;;;;;;34.53;9.60;;;30.20;59.10;;;;;;5090408;28;20187;-75
2023/09/10 10:06:17;;;;;;;31.53;9.33;;;30.30;59.10;;;;;;5090390;28;21002;-76
2023/09/10 10:08:49;;;;;;;58.97;11.87;;;30.30;59.10;;;;;;5068173;28;20207;-71
2023/09/10 10:11:17;;;;;;;33.45;9.80;;;30.30;59.00;;;;;;5060296;28;20203;-69
2023/09/10 10:13:46;;;;;;;26.47;8.47;;;30.30;59.00;;;;;;5069236;28;20231;-72
2023/09/10 10:16:13;;;;;;;24.60;8.13;;;30.30;59.00;;;;;;5069837;28;20199;-71
2023/09/10 10:18:41;;;;;;;44.30;10.07;;;30.40;59.10;;;;;;5068152;28;20956;-69
2023/09/10 10:21:09;;;;;;;29.23;9.07;;;30.40;59.10;;;;;;5051090;28;20212;-72
2023/09/10 10:23:37;;;;;;;28.37;8.93;;;30.50;59.20;;;;;;5049459;28;20197;-72
2023/09/10 10:26:06;;;;;;;27.93;8.40;;;30.40;59.10;;;;;;5053939;28;20295;-69
2023/09/10 10:28:35;;;;;;;36.77;9.10;;;30.50;59.20;;;;;;5068504;28;20612;-71
2023/09/10 10:31:14;;;;;;;28.87;9.10;;;30.50;59.20;;;;;;5050918;28;20215;-71
2023/09/10 10:33:50;;;;;;;34.13;9.47;;;30.50;59.20;;;;;;5049232;28;20240;-73
2023/09/10 10:36:32;;;;;;;33.67;10.13;;;30.60;59.20;;;;;;5048310;28;20290;-75
2023/09/10 10:39:04;;;;;;;25.98;8.32;;;30.60;59.20;;;;;;5049906;28;20206;-73
2023/09/10 10:41:35;;;;;;;34.53;9.20;;;30.60;59.20;;;;;;5064042;28;20204;-74
2023/09/10 10:44:12;;;;;;;30.17;9.03;;;30.70;59.20;;;;;;5067885;28;20228;-77
2023/09/10 10:46:43;;;;;;;27.97;9.13;;;30.70;59.30;;;;;;5056988;28;20294;-73
2023/09/10 10:49:11;;;;;;;26.27;9.03;;;30.70;59.20;;;;;;5049526;28;20218;-75
2023/09/10 10:51:41;;;;;;;35.17;9.77;;;30.70;59.10;;;;;;5050954;28;20227;-78
2023/09/10 10:54:09;;;;;;;26.90;8.73;;;30.70;59.10;;;;;;5058874;28;20342;-70
2023/09/10 10:56:37;;;;;;;42.25;9.52;;;30.80;59.10;;;;;;5067467;28;20214;-72
2023/09/10 10:59:04;;;;;;;35.17;10.10;;;30.80;59.10;;;;;;5065385;28;20199;-78
2023/09/10 11:01:31;;;;;;;29.53;8.53;;;30.80;59.10;;;;;;5049177;28;20235;-72
2023/09/10 11:04:18;;;;;;;34.00;9.07;;;30.80;59.00;;;;;;5049645;28;20204;-74
2023/09/10 11:07:18;;;;;;;28.57;8.57;;;30.90;59.10;;;;;;5049367;28;20314;-72
2023/09/10 11:09:47;;;;;;;33.70;8.77;;;30.90;59.10;;;;;;5067895;28;20211;-75
2023/09/10 11:12:15;;;;;;;28.98;8.70;;;30.90;58.90;;;;;;5068687;28;20207;-71
2023/09/10 11:15:15;;;;;;;31.80;9.00;;;30.90;59.00;;;;;;5052150;28;20235;-73
2023/09/10 11:17:42;;;;;;;33.30;9.50;;;30.90;58.90;;;;;;5012107;28;20209;-70
2023/09/10 11:20:11;;;;;;;30.92;8.52;;;31.00;58.90;;;;;;5025996;28;20228;-70
2023/09/10 11:23:07;;;;;;;30.75;10.38;;;31.00;58.90;;;;;;5044285;28;20290;-75
2023/09/10 11:25:34;;;;;;;43.10;10.65;;;31.00;58.90;;;;;;5048358;28;20275;-72
2023/09/10 11:28:02;;;;;;;24.88;8.88;;;31.00;58.90;;;;;;5053757;28;20743;-72
2023/09/10 11:30:29;;;;;;;33.08;9.40;;;31.00;58.90;;;;;;5048401;28;20208;-71
2023/09/10 11:33:35;;;;;;;34.15;9.02;;;31.10;58.90;;;;;;5048188;28;20307;-72
2023/09/10 11:36:05;;;;;;;30.42;8.93;;;31.10;58.90;;;;;;5031338;28;20291;-74
2023/09/10 11:38:32;;;;;;;31.37;9.20;;;31.10;58.90;;;;;;5066090;28;20203;-74
2023/09/10 11:41:00;;;;;;;29.07;9.57;;;31.10;58.90;;;;;;5088150;28;20244;-76
2023/09/10 11:43:29;;;;;;;25.67;8.07;;;31.20;58.90;;;;;;5088150;28;20209;-71
2023/09/10 11:46:02;;;;;;;39.88;10.02;;;31.20;58.90;;;;;;5074579;28;20227;-75
2023/09/10 11:48:29;;;;;;;25.10;8.07;;;31.20;58.90;;;;;;5088373;28;20230;-76
2023/09/10 11:50:58;;;;;;;31.23;9.03;;;31.20;58.90;;;;;;5087721;28;20202;-76
2023/09/10 11:53:27;;;;;;;24.83;8.00;;;31.20;58.90;;;;;;5088485;28;20660;-75
2023/09/10 11:55:54;;;;;;;25.80;7.53;;;31.20;58.80;;;;;;5077572;28;20214;-71
2023/09/10 11:58:21;;;;;;;26.73;7.70;;;31.20;58.80;;;;;;5088120;28;20206;-73
2023/09/10 12:00:48;;;;;;;35.15;9.63;;;31.20;59.40;;;;;;5088404;28;20225;-76
2023/09/10 12:03:15;;;;;;;23.92;7.50;;;31.20;58.70;;;;;;5088110;28;20313;-71
2023/09/10 12:05:43;;;;;;;24.75;7.65;;;31.20;58.70;;;;;;5087851;28;20306;-73
2023/09/10 12:08:10;;;;;;;28.60;8.15;;;31.20;58.70;;;;;;5087993;28;20702;-74
2023/09/10 12:10:39;;;;;;;25.13;7.97;;;31.20;58.70;;;;;;5088148;28;20206;-71
2023/09/10 12:13:08;;;;;;;27.65;8.23;;;31.30;58.70;;;;;;5087643;28;20321;-71
2023/09/10 12:15:35;;;;;;;44.45;9.85;;;31.30;59.30;;;;;;5084594;28;20252;-72
2023/09/10 12:18:06;;;;;;;29.50;8.13;;;31.20;58.70;;;;;;5065961;28;20203;-72
2023/09/10 12:20:35;;;;;;;24.60;7.75;;;31.30;58.70;;;;;;5067575;28;20648;-72
2023/09/10 12:23:03;;;;;;;26.38;7.75;;;31.30;58.80;;;;;;5067652;28;20286;-78
2023/09/10 12:25:30;;;;;;;25.05;8.15;;;31.30;58.70;;;;;;5067677;28;20216;-79
2023/09/10 12:27:58;;;;;;;24.00;7.97;;;31.30;58.70;;;;;;5067540;28;20314;-78
2023/09/10 12:30:26;;;;;;;31.23;8.52;;;31.30;58.70;;;;;;5067971;28;20219;-76
2023/09/10 12:32:54;;;;;;;31.88;8.25;;;31.30;58.70;;;;;;5067294;28;20192;-71
2023/09/10 12:35:21;;;;;;;21.98;7.22;;;31.40;58.80;;;;;;5067719;28;20231;-71
2023/09/10 12:37:51;;;;;;;25.60;8.25;;;31.40;58.80;;;;;;5067556;28;20286;-73
2023/09/10 12:40:18;;;;;;;17.95;7.20;;;31.40;59.40;;;;;;5063405;28;20226;-74
2023/09/10 12:42:46;;;;;;;22.88;7.40;;;31.40;58.80;;;;;;5087325;28;20290;-70
2023/09/10 12:45:14;;;;;;;17.80;6.50;;;31.40;58.80;;;;;;5087766;28;20373;-72